createdAt,value
2022-10-04T00:02:25.253Z,9.90
2022-10-04T00:05:00.019Z,8.93
2022-10-04T00:07:30.911Z,8.80
2022-10-04T00:10:04.166Z,7.53
2022-10-04T00:12:36.281Z,10.53
2022-10-04T00:15:08.554Z,10.20
2022-10-04T00:17:36.530Z,9.00
2022-10-04T00:20:25.276Z,8.80
2022-10-04T00:23:28.622Z,11.07
2022-10-04T00:26:00.238Z,12.33
2022-10-04T00:28:43.788Z,9.10
2022-10-04T00:31:22.050Z,10.40
2022-10-04T00:33:52.276Z,15.20
2022-10-04T00:36:46.782Z,11.27
2022-10-04T00:39:26.036Z,10.40
2022-10-04T00:42:02.686Z,13.80
2022-10-04T00:44:38.933Z,11.87
2022-10-04T00:47:23.023Z,10.97
2022-10-04T00:49:57.033Z,8.93
2022-10-04T00:52:29.151Z,8.50
2022-10-04T00:54:59.590Z,10.43
2022-10-04T00:57:31.219Z,9.80
2022-10-04T01:00:04.758Z,9.97
2022-10-04T01:02:40.158Z,10.37
2022-10-04T01:05:12.198Z,8.80
2022-10-04T01:07:43.449Z,11.90
2022-10-04T01:10:15.415Z,9.97
2022-10-04T01:12:50.858Z,10.17
2022-10-04T01:15:27.059Z,9.17
2022-10-04T01:18:14.531Z,8.37
2022-10-04T01:20:54.333Z,12.43
2022-10-04T01:23:39.047Z,14.03
2022-10-04T01:26:08.220Z,11.83
2022-10-04T01:28:36.716Z,11.17
2022-10-04T01:31:04.872Z,9.10
2022-10-04T01:33:32.825Z,10.57
2022-10-04T01:36:00.904Z,8.70
2022-10-04T01:38:28.956Z,11.10
2022-10-04T01:41:02.418Z,12.30
2022-10-04T01:43:37.497Z,13.07
2022-10-04T01:46:11.385Z,10.13
2022-10-04T01:48:44.590Z,12.57
2022-10-04T01:51:17.262Z,11.43
2022-10-04T01:53:51.400Z,9.87
2022-10-04T01:56:24.169Z,15.60
2022-10-04T01:58:56.395Z,11.53
2022-10-04T02:01:31.221Z,10.40
2022-10-04T02:04:01.990Z,9.83
2022-10-04T02:06:31.025Z,10.37
2022-10-04T02:08:59.549Z,10.03
2022-10-04T02:11:31.139Z,10.93
2022-10-04T02:14:01.119Z,10.30
2022-10-04T02:16:29.386Z,11.07
2022-10-04T02:18:58.348Z,11.57
2022-10-04T02:21:26.398Z,12.87
2022-10-04T02:23:54.885Z,8.60
2022-10-04T02:26:22.885Z,11.87
2022-10-04T02:28:52.452Z,9.07
2022-10-04T02:31:40.527Z,9.50
2022-10-04T02:34:09.364Z,9.40
2022-10-04T02:36:38.349Z,11.43
2022-10-04T02:39:11.029Z,12.60
2022-10-04T02:41:44.593Z,10.27
2022-10-04T02:44:17.615Z,9.53
2022-10-04T02:46:52.482Z,9.33
2022-10-04T02:49:29.229Z,11.27
2022-10-04T02:52:03.415Z,9.00
2022-10-04T02:54:36.529Z,9.53
2022-10-04T02:57:05.568Z,12.27
2022-10-04T02:59:35.708Z,11.70
2022-10-04T03:02:04.000Z,11.10
2022-10-04T03:04:34.422Z,10.23
2022-10-04T03:07:05.779Z,12.37
2022-10-04T03:09:36.371Z,8.53
2022-10-04T03:12:05.888Z,11.90
2022-10-04T03:14:35.509Z,9.63
2022-10-04T03:17:04.852Z,10.97
2022-10-04T03:19:34.426Z,9.77
2022-10-04T03:22:05.752Z,9.00
2022-10-04T03:24:35.613Z,10.57
2022-10-04T03:27:08.134Z,9.10
2022-10-04T03:29:43.767Z,11.47
2022-10-04T03:32:15.536Z,10.17
2022-10-04T03:34:49.578Z,9.93
2022-10-04T03:37:21.510Z,13.13
2022-10-04T03:39:53.118Z,8.03
2022-10-04T03:42:23.330Z,11.03
2022-10-04T03:44:56.206Z,10.43
2022-10-04T03:47:28.504Z,8.70
2022-10-04T03:49:59.459Z,9.03
2022-10-04T03:52:32.826Z,13.37
2022-10-04T03:55:03.500Z,10.20
2022-10-04T03:57:32.150Z,11.50
2022-10-04T04:00:02.627Z,12.77
2022-10-04T04:02:46.170Z,8.53
2022-10-04T04:05:20.280Z,9.93
2022-10-04T04:07:54.200Z,10.73
2022-10-04T04:10:25.883Z,11.30
2022-10-04T04:12:58.104Z,8.60
2022-10-04T04:15:30.744Z,13.83
2022-10-04T04:18:03.330Z,9.07
2022-10-04T04:20:33.872Z,9.40
2022-10-04T04:23:06.376Z,8.57
2022-10-04T04:25:38.134Z,9.43
2022-10-04T04:28:15.978Z,8.93
2022-10-04T04:30:49.429Z,10.00
2022-10-04T04:33:26.943Z,9.60
2022-10-04T04:36:05.332Z,11.47
2022-10-04T04:38:35.229Z,8.20
2022-10-04T04:41:11.034Z,7.80
2022-10-04T04:43:44.788Z,9.80
2022-10-04T04:46:29.496Z,8.53
2022-10-04T04:49:02.461Z,8.90
2022-10-04T04:51:32.382Z,8.03
2022-10-04T04:54:03.454Z,10.07
2022-10-04T04:56:32.363Z,9.17
2022-10-04T04:59:04.333Z,8.90
2022-10-04T05:01:36.757Z,8.90
2022-10-04T05:04:06.657Z,11.30
2022-10-04T05:06:36.686Z,8.33
2022-10-04T05:09:05.167Z,8.03
2022-10-04T05:11:35.986Z,7.47
2022-10-04T05:14:07.396Z,9.90
2022-10-04T05:16:41.873Z,9.63
2022-10-04T05:19:15.707Z,6.37
2022-10-04T05:21:47.703Z,11.20
2022-10-04T05:24:22.480Z,8.97
2022-10-04T05:26:52.005Z,7.80
2022-10-04T05:29:22.565Z,10.07
2022-10-04T05:31:59.170Z,7.87
2022-10-04T05:34:29.794Z,8.77
2022-10-04T05:37:09.846Z,8.67
2022-10-04T05:39:44.124Z,9.83
2022-10-04T05:42:21.222Z,9.67
2022-10-04T05:44:52.746Z,9.27
2022-10-04T05:47:24.133Z,7.97
2022-10-04T05:49:55.482Z,8.80
2022-10-04T05:52:30.421Z,9.97
2022-10-04T05:55:19.119Z,9.37
2022-10-04T05:57:54.666Z,10.50
2022-10-04T06:00:26.767Z,11.07
2022-10-04T06:03:15.495Z,8.83
2022-10-04T06:05:50.994Z,9.27
2022-10-04T06:08:31.312Z,10.20
2022-10-04T06:11:06.508Z,13.60
2022-10-04T06:13:55.466Z,9.93
2022-10-04T06:16:38.043Z,12.50
2022-10-04T06:19:19.624Z,8.40
2022-10-04T06:22:10.539Z,9.23
2022-10-04T06:24:42.171Z,6.83
2022-10-04T06:27:16.009Z,10.23
2022-10-04T06:29:50.673Z,8.73
2022-10-04T06:32:49.223Z,8.43
2022-10-04T06:35:47.295Z,11.27
2022-10-04T06:38:32.951Z,11.43
2022-10-04T06:41:18.850Z,8.17
2022-10-04T06:44:05.755Z,11.53
2022-10-04T06:46:43.539Z,7.40
2022-10-04T06:49:35.289Z,8.93
2022-10-04T06:52:32.017Z,10.40
2022-10-04T06:55:28.327Z,8.77
2022-10-04T06:58:12.964Z,8.03
2022-10-04T07:00:49.778Z,32.23
2022-10-04T07:03:26.455Z,9.53
2022-10-04T07:05:59.065Z,9.07
2022-10-04T07:08:39.926Z,9.17
2022-10-04T07:11:15.249Z,9.97
2022-10-04T07:13:49.833Z,10.47
2022-10-04T07:16:32.388Z,11.33
2022-10-04T07:19:13.500Z,7.80
2022-10-04T07:21:50.242Z,9.97
2022-10-04T07:24:25.969Z,11.93
2022-10-04T07:26:56.348Z,16.30
2022-10-04T07:29:27.859Z,22.87
2022-10-04T07:32:08.649Z,22.10
2022-10-04T07:34:41.391Z,18.20
2022-10-04T07:37:12.772Z,19.93
2022-10-04T07:39:51.730Z,16.87
2022-10-04T07:42:27.206Z,14.97
2022-10-04T07:45:06.916Z,13.10
2022-10-04T07:47:35.169Z,17.97
2022-10-04T07:50:21.583Z,17.83
2022-10-04T07:52:54.822Z,15.97
2022-10-04T07:55:33.056Z,15.13
2022-10-04T07:58:16.985Z,12.53
2022-10-04T08:00:56.367Z,12.83
2022-10-04T08:03:56.074Z,12.37
2022-10-04T08:06:31.943Z,12.30
2022-10-04T08:09:20.089Z,12.03
2022-10-04T08:11:57.763Z,10.90
2022-10-04T08:14:32.671Z,10.00
2022-10-04T08:17:15.749Z,11.57
2022-10-04T08:19:53.798Z,8.63
2022-10-04T08:22:34.584Z,11.03
2022-10-04T08:25:09.727Z,10.50
2022-10-04T08:28:12.066Z,11.63
2022-10-04T08:30:52.926Z,6.40
2022-10-04T08:33:32.776Z,9.30
2022-10-04T08:36:10.476Z,7.20
2022-10-04T08:38:45.043Z,17.50
2022-10-04T08:41:46.003Z,13.57
2022-10-04T08:44:50.370Z,20.70
2022-10-04T08:47:40.998Z,12.47
2022-10-04T08:50:35.524Z,22.67
2022-10-04T08:53:36.477Z,14.33
2022-10-04T08:56:14.595Z,12.83
2022-10-04T08:59:33.943Z,14.23
2022-10-04T09:02:58.292Z,11.83
2022-10-04T09:06:01.371Z,14.77
2022-10-04T09:09:14.544Z,11.20
2022-10-04T09:12:15.294Z,14.53
2022-10-04T09:15:21.143Z,10.80
2022-10-04T09:17:55.995Z,9.30
2022-10-04T09:20:40.929Z,11.93
2022-10-04T09:23:42.291Z,14.30
2022-10-04T09:26:21.704Z,9.07
2022-10-04T09:29:28.029Z,5.93
2022-10-04T09:32:33.668Z,7.37
2022-10-04T09:35:34.982Z,8.10
2022-10-04T09:39:25.268Z,7.03
2022-10-04T09:42:27.950Z,8.97
2022-10-04T09:45:27.532Z,10.97
2022-10-04T09:48:25.259Z,13.63
2022-10-04T09:51:17.736Z,6.80
2022-10-04T09:53:58.632Z,7.33
2022-10-04T09:56:51.233Z,12.77
2022-10-04T09:59:57.076Z,9.33
2022-10-04T10:02:58.401Z,7.77
2022-10-04T10:05:38.562Z,6.23
2022-10-04T10:08:18.856Z,7.30
2022-10-04T10:11:15.681Z,6.07
2022-10-04T10:14:07.205Z,5.70
2022-10-04T10:16:42.915Z,5.07
2022-10-04T10:19:32.676Z,6.07
2022-10-04T10:22:17.116Z,6.97
2022-10-04T10:25:09.110Z,4.17
2022-10-04T10:28:02.725Z,4.80
2022-10-04T10:30:42.774Z,4.83
2022-10-04T10:33:38.061Z,5.60
2022-10-04T10:36:28.373Z,4.90
2022-10-04T10:39:10.229Z,3.70
2022-10-04T10:41:51.363Z,5.33
2022-10-04T10:44:34.615Z,4.77
2022-10-04T10:47:23.345Z,4.17
2022-10-04T10:50:17.319Z,3.43
2022-10-04T10:53:14.147Z,3.77
2022-10-04T10:56:29.302Z,4.37
2022-10-04T10:59:31.894Z,6.50
2022-10-04T11:02:47.805Z,6.90
2022-10-04T11:06:03.340Z,3.17
2022-10-04T11:09:01.656Z,6.33
2022-10-04T11:11:56.028Z,7.33
2022-10-04T11:15:06.033Z,5.77
2022-10-04T11:18:17.661Z,5.07
2022-10-04T11:21:35.638Z,4.87
2022-10-04T11:24:35.499Z,6.00
2022-10-04T11:27:14.087Z,5.37
2022-10-04T11:29:59.817Z,5.70
2022-10-04T11:33:04.364Z,4.23
2022-10-04T11:35:46.440Z,8.80
2022-10-04T11:38:27.864Z,9.07
2022-10-04T11:41:10.943Z,9.80
2022-10-04T11:44:04.613Z,7.57
2022-10-04T11:46:46.128Z,4.97
2022-10-04T11:49:41.151Z,8.97
2022-10-04T11:52:36.868Z,8.17
2022-10-04T11:55:35.072Z,4.40
2022-10-04T11:58:12.002Z,3.43
2022-10-04T12:01:08.416Z,4.80
2022-10-04T12:04:04.155Z,9.40
2022-10-04T12:06:48.572Z,2.53
2022-10-04T12:09:24.213Z,3.57
2022-10-04T12:12:40.500Z,3.23
2022-10-04T12:15:34.749Z,7.10
2022-10-04T12:18:26.550Z,6.17
2022-10-04T12:21:28.904Z,10.50
2022-10-04T12:24:17.674Z,3.73
2022-10-04T12:27:24.334Z,6.33
2022-10-04T12:30:23.910Z,5.63
2022-10-04T12:33:02.508Z,5.90
2022-10-04T12:35:43.472Z,4.53
2022-10-04T12:38:47.072Z,5.47
2022-10-04T12:41:28.200Z,3.40
2022-10-04T12:44:07.797Z,6.43
2022-10-04T12:46:45.889Z,4.60
2022-10-04T12:49:23.476Z,3.60
2022-10-04T12:51:57.403Z,6.00
2022-10-04T12:54:38.790Z,4.47
2022-10-04T12:57:33.296Z,4.07
2022-10-04T13:00:07.076Z,5.17
2022-10-04T13:02:54.235Z,4.00
2022-10-04T13:05:31.082Z,4.23
2022-10-04T13:08:11.126Z,6.20
2022-10-04T13:10:55.280Z,5.60
2022-10-04T13:13:49.739Z,4.27
2022-10-04T13:19:20.667Z,3.83
2022-10-04T13:22:11.824Z,5.25
2022-10-04T13:24:56.611Z,5.25
2022-10-04T13:27:35.272Z,5.28
2022-10-04T13:30:08.128Z,5.45
2022-10-04T13:32:45.308Z,5.25
2022-10-04T13:35:20.951Z,4.03
2022-10-04T13:38:03.584Z,7.90
2022-10-04T13:40:44.666Z,4.75
2022-10-04T13:43:49.500Z,5.25
2022-10-04T13:46:29.109Z,5.97
2022-10-04T13:49:07.368Z,4.85
2022-10-04T13:52:12.923Z,4.10
2022-10-04T13:55:05.264Z,3.95
2022-10-04T13:57:44.349Z,5.95
2022-10-04T14:00:17.622Z,3.75
2022-10-04T14:03:04.864Z,3.40
2022-10-04T14:06:11.490Z,3.88
2022-10-04T14:09:19.787Z,6.03
2022-10-04T14:12:26.479Z,6.13
2022-10-04T14:15:36.317Z,5.88
2022-10-04T14:18:29.088Z,4.18
2022-10-04T14:21:37.688Z,5.72
2022-10-04T14:24:44.215Z,3.33
2022-10-04T14:27:39.616Z,3.70
2022-10-04T14:30:18.453Z,3.30
2022-10-04T14:33:21.416Z,4.07
2022-10-04T14:35:58.968Z,5.63
2022-10-04T14:38:43.264Z,3.35
2022-10-04T14:41:47.797Z,3.53
2022-10-04T14:44:51.287Z,3.78
2022-10-04T14:47:44.769Z,2.53
2022-10-04T14:50:25.811Z,2.67
2022-10-04T14:53:11.347Z,6.03
2022-10-04T14:56:07.916Z,4.25
2022-10-04T14:58:42.083Z,3.53
2022-10-04T15:01:22.148Z,3.55
2022-10-04T15:04:13.838Z,3.70
2022-10-04T15:06:48.734Z,3.47
2022-10-04T15:09:52.922Z,5.63
2022-10-04T15:13:11.080Z,4.20
2022-10-04T15:15:58.605Z,7.83
2022-10-04T15:18:39.274Z,4.00
2022-10-04T15:21:21.499Z,4.00
2022-10-04T15:23:54.035Z,3.53
2022-10-04T15:26:50.840Z,4.80
2022-10-04T15:29:26.291Z,2.63
2022-10-04T15:32:07.520Z,5.00
2022-10-04T15:34:45.597Z,3.23
2022-10-04T15:37:29.442Z,4.73
2022-10-04T15:40:19.743Z,2.97
2022-10-04T15:43:07.523Z,4.07
2022-10-04T15:45:59.409Z,3.07
2022-10-04T15:48:47.626Z,4.30
2022-10-04T15:51:21.205Z,4.03
2022-10-04T15:54:05.783Z,3.77
2022-10-04T15:56:46.403Z,4.73
2022-10-04T15:59:49.915Z,3.73
2022-10-04T16:02:47.051Z,4.97
2022-10-04T16:05:23.455Z,3.97
2022-10-04T16:08:23.087Z,4.03
2022-10-04T16:11:12.019Z,3.60
2022-10-04T16:13:49.379Z,3.40
2022-10-04T16:16:59.415Z,4.33
2022-10-04T16:19:47.891Z,2.83
2022-10-04T16:22:18.397Z,3.53
2022-10-04T16:24:49.846Z,4.30
2022-10-04T16:27:50.433Z,3.17
2022-10-04T16:30:27.839Z,4.33
2022-10-04T16:33:22.927Z,4.00
2022-10-04T16:36:06.467Z,4.53
2022-10-04T16:39:04.275Z,6.67
2022-10-04T16:41:40.123Z,3.07
2022-10-04T16:44:22.969Z,3.43
2022-10-04T16:46:53.109Z,2.63
2022-10-04T16:49:29.448Z,4.70
2022-10-04T16:52:22.396Z,3.27
2022-10-04T16:55:03.644Z,2.67
2022-10-04T16:57:31.963Z,5.77
2022-10-04T17:00:05.677Z,2.20
2022-10-04T17:03:05.588Z,4.13
2022-10-04T17:06:04.459Z,3.70
2022-10-04T17:08:49.693Z,4.37
2022-10-04T17:11:43.992Z,5.63
2022-10-04T17:14:50.646Z,6.77
2022-10-04T17:17:25.384Z,7.53
2022-10-04T17:20:00.363Z,7.27
2022-10-04T17:22:35.759Z,4.20
2022-10-04T17:25:17.553Z,5.27
2022-10-04T17:27:49.138Z,7.53
2022-10-04T17:30:21.436Z,5.20
2022-10-04T17:33:06.248Z,9.73
2022-10-04T17:35:55.778Z,10.40
2022-10-04T17:38:31.613Z,9.93
2022-10-04T17:41:10.454Z,4.90
2022-10-04T17:43:46.789Z,7.27
2022-10-04T17:46:22.662Z,6.97
2022-10-04T17:49:15.372Z,5.93
2022-10-04T17:52:04.528Z,5.00
2022-10-04T17:54:57.471Z,5.77
2022-10-04T17:57:34.130Z,7.40
2022-10-04T18:00:10.652Z,6.60
2022-10-04T18:03:08.644Z,5.20
2022-10-04T18:05:47.380Z,8.57
2022-10-04T18:08:21.889Z,5.00
2022-10-04T18:10:54.712Z,8.10
2022-10-04T18:13:31.665Z,10.13
2022-10-04T18:16:05.225Z,5.17
2022-10-04T18:18:40.105Z,9.23
2022-10-04T18:21:20.812Z,5.67
2022-10-04T18:23:57.683Z,5.20
2022-10-04T18:26:29.725Z,4.37
2022-10-04T18:29:00.999Z,7.23
2022-10-04T18:31:37.878Z,5.90
2022-10-04T18:34:32.006Z,4.50
2022-10-04T18:37:19.797Z,6.10
2022-10-04T18:39:53.243Z,7.67
2022-10-04T18:42:28.836Z,6.37
2022-10-04T18:45:01.168Z,7.20
2022-10-04T18:47:36.960Z,5.07
2022-10-04T18:50:17.443Z,7.40
2022-10-04T18:52:56.488Z,6.23
2022-10-04T18:55:34.242Z,4.90
2022-10-04T18:58:30.283Z,5.27
2022-10-04T19:01:32.632Z,6.57
2022-10-04T19:04:09.608Z,4.60
2022-10-04T19:06:38.974Z,9.57
2022-10-04T19:09:19.416Z,4.27
2022-10-04T19:11:54.010Z,7.43
2022-10-04T19:14:29.461Z,6.47
2022-10-04T19:17:02.503Z,6.33
2022-10-04T19:19:40.926Z,7.00
2022-10-04T19:22:20.557Z,4.73
2022-10-04T19:25:06.000Z,8.87
2022-10-04T19:27:39.167Z,6.27
2022-10-04T19:30:16.253Z,9.87
2022-10-04T19:32:57.508Z,6.40
2022-10-04T19:35:50.472Z,4.97
2022-10-04T19:38:38.066Z,4.30
2022-10-04T19:41:14.361Z,4.40
2022-10-04T19:43:50.548Z,5.80
2022-10-04T19:46:29.748Z,5.73
2022-10-04T19:48:59.195Z,10.27
2022-10-04T19:51:34.788Z,4.70
2022-10-04T19:54:13.384Z,8.63
2022-10-04T19:56:47.539Z,7.23
2022-10-04T19:59:18.560Z,6.60
2022-10-04T20:01:46.653Z,4.00
2022-10-04T20:04:36.003Z,5.87
2022-10-04T20:07:06.074Z,9.87
2022-10-04T20:09:51.421Z,5.30
2022-10-04T20:12:37.891Z,6.53
2022-10-04T20:15:46.537Z,5.07
2022-10-04T20:18:51.130Z,9.50
2022-10-04T20:21:29.687Z,5.63
2022-10-04T20:23:57.702Z,4.30
2022-10-04T20:27:01.186Z,4.27
2022-10-04T20:30:05.221Z,7.90
2022-10-04T20:32:55.175Z,9.30
2022-10-04T20:36:12.071Z,7.27
2022-10-04T20:38:55.615Z,4.70
2022-10-04T20:42:17.835Z,6.77
2022-10-04T20:44:51.122Z,6.83
2022-10-04T20:47:31.887Z,8.90
2022-10-04T20:50:01.621Z,8.53
2022-10-04T20:52:31.698Z,8.93
2022-10-04T20:55:02.865Z,10.00
2022-10-04T20:57:31.566Z,5.07
2022-10-04T20:59:59.795Z,7.10
2022-10-04T21:02:28.798Z,8.90
2022-10-04T21:05:13.532Z,5.30
2022-10-04T21:07:47.400Z,6.13
2022-10-04T21:10:20.752Z,8.50
2022-10-04T21:12:49.491Z,11.60
2022-10-04T21:15:22.793Z,7.10
2022-10-04T21:18:10.904Z,7.93
2022-10-04T21:20:46.949Z,6.27
2022-10-04T21:23:29.986Z,7.17
2022-10-04T21:26:20.972Z,6.60
2022-10-04T21:28:49.188Z,7.10
2022-10-04T21:31:17.338Z,12.17
2022-10-04T21:33:45.354Z,12.07
2022-10-04T21:36:13.265Z,7.90
2022-10-04T21:38:41.261Z,11.80
2022-10-04T21:41:09.364Z,10.03
2022-10-04T21:43:38.676Z,4.80
2022-10-04T21:46:06.770Z,8.27
2022-10-04T21:48:34.695Z,8.90
2022-10-04T21:51:02.563Z,8.00
2022-10-04T21:53:30.439Z,6.57
2022-10-04T21:55:58.283Z,6.83
2022-10-04T21:58:26.246Z,6.90
2022-10-04T22:00:55.538Z,7.83
2022-10-04T22:03:23.542Z,5.53
2022-10-04T22:05:51.497Z,11.83
2022-10-04T22:08:19.422Z,9.27
2022-10-04T22:10:48.041Z,7.37
2022-10-04T22:13:16.082Z,6.03
2022-10-04T22:15:43.949Z,6.10
2022-10-04T22:18:13.139Z,5.10
2022-10-04T22:20:41.082Z,4.50
2022-10-04T22:23:16.179Z,4.70
2022-10-04T22:25:44.033Z,5.37
2022-10-04T22:28:19.538Z,6.43
2022-10-04T22:30:49.428Z,4.30
2022-10-04T22:33:28.795Z,6.33
2022-10-04T22:35:58.889Z,7.57
2022-10-04T22:38:26.741Z,4.97
2022-10-04T22:40:54.708Z,8.13
2022-10-04T22:43:22.711Z,8.73
2022-10-04T22:45:50.673Z,6.63
2022-10-04T22:48:18.551Z,5.23
2022-10-04T22:50:47.793Z,6.43
2022-10-04T22:53:20.613Z,6.67
2022-10-04T22:55:50.363Z,6.63
2022-10-04T22:58:21.073Z,17.67
2022-10-04T23:00:50.235Z,15.93
2022-10-04T23:03:27.491Z,8.80
2022-10-04T23:05:56.782Z,22.97
2022-10-04T23:08:24.859Z,8.20
2022-10-04T23:10:55.662Z,6.07
2022-10-04T23:13:25.030Z,6.97
2022-10-04T23:15:53.867Z,8.50
2022-10-04T23:18:21.795Z,7.37
2022-10-04T23:20:54.030Z,6.93
2022-10-04T23:23:23.297Z,11.77
2022-10-04T23:25:51.693Z,6.53
2022-10-04T23:28:20.367Z,6.13
2022-10-04T23:30:59.307Z,5.37
2022-10-04T23:33:27.453Z,11.97
2022-10-04T23:35:56.873Z,5.57
2022-10-04T23:38:26.480Z,6.23
2022-10-04T23:40:54.826Z,7.67
2022-10-04T23:43:25.638Z,10.23
2022-10-04T23:45:54.908Z,4.80
2022-10-04T23:48:26.237Z,5.97
2022-10-04T23:50:55.590Z,9.27
2022-10-04T23:53:28.324Z,8.97
2022-10-04T23:55:58.774Z,7.60
2022-10-04T23:58:31.312Z,8.87
